createdAt,value
2022-10-31T00:01:42.456Z,11.26
2022-10-31T00:04:11.113Z,11.22
2022-10-31T00:06:39.730Z,11.25
2022-10-31T00:09:08.351Z,11.29
2022-10-31T00:11:37.035Z,11.24
2022-10-31T00:14:06.106Z,11.25
2022-10-31T00:16:34.922Z,11.28
2022-10-31T00:19:08.235Z,11.26
2022-10-31T00:21:37.683Z,11.23
2022-10-31T00:24:07.501Z,11.28
2022-10-31T00:26:36.383Z,11.25
2022-10-31T00:29:05.080Z,11.22
2022-10-31T00:31:34.196Z,11.22
2022-10-31T00:34:05.095Z,11.20
2022-10-31T00:36:33.794Z,11.22
2022-10-31T00:39:02.650Z,11.17
2022-10-31T00:41:31.332Z,11.13
2022-10-31T00:44:00.117Z,11.11
2022-10-31T00:46:28.899Z,11.17
2022-10-31T00:48:58.752Z,11.16
2022-10-31T00:51:28.908Z,11.15
2022-10-31T00:53:57.552Z,11.15
2022-10-31T00:56:26.317Z,11.15
2022-10-31T00:58:54.995Z,11.07
2022-10-31T01:01:23.765Z,11.05
2022-10-31T01:03:53.278Z,10.97
2022-10-31T01:06:21.904Z,11.00
2022-10-31T01:08:51.852Z,11.00
2022-10-31T01:11:23.843Z,10.97
2022-10-31T01:13:55.778Z,10.93
2022-10-31T01:16:28.126Z,10.98
2022-10-31T01:18:58.446Z,10.95
2022-10-31T01:21:31.851Z,10.99
2022-10-31T01:24:04.012Z,11.00
2022-10-31T01:26:35.044Z,10.95
2022-10-31T01:29:07.717Z,10.91
2022-10-31T01:31:41.257Z,10.91
2022-10-31T01:34:14.604Z,10.89
2022-10-31T01:36:44.375Z,10.85
2022-10-31T01:39:17.275Z,10.93
2022-10-31T01:41:48.578Z,10.95
2022-10-31T01:44:55.602Z,10.98
2022-10-31T01:47:34.810Z,10.99
2022-10-31T01:50:14.498Z,10.98
2022-10-31T03:00:29.308Z,10.53
2022-10-31T03:03:13.279Z,10.58
2022-10-31T03:05:57.267Z,10.66
2022-10-31T03:08:37.004Z,10.70
2022-10-31T03:11:10.487Z,10.67
2022-10-31T03:13:52.040Z,10.66
2022-10-31T03:16:37.513Z,10.64
2022-10-31T03:19:10.555Z,10.66
2022-10-31T03:21:46.567Z,10.60
2022-10-31T03:24:18.118Z,10.52
2022-10-31T03:26:53.983Z,10.45
2022-10-31T03:29:30.964Z,10.41
2022-10-31T03:32:08.856Z,10.41
2022-10-31T03:34:41.962Z,10.37
2022-10-31T03:37:17.195Z,10.31
2022-10-31T03:39:49.101Z,10.30
2022-10-31T03:42:22.843Z,10.40
2022-10-31T03:45:04.813Z,10.37
2022-10-31T03:47:37.440Z,10.25
2022-10-31T03:50:08.829Z,10.20
2022-10-31T03:52:48.089Z,10.25
2022-10-31T03:55:23.210Z,10.39
2022-10-31T03:58:00.824Z,10.43
2022-10-31T04:00:30.120Z,10.44
2022-10-31T04:03:08.715Z,10.41
2022-10-31T04:05:43.014Z,10.44
2022-10-31T04:08:17.547Z,10.45
2022-10-31T04:10:52.038Z,10.32
2022-10-31T04:13:28.670Z,10.26
2022-10-31T04:16:16.907Z,10.23
2022-10-31T04:18:47.799Z,10.16
2022-10-31T04:21:18.866Z,10.14
2022-10-31T04:23:48.224Z,10.05
2022-10-31T04:26:23.323Z,10.04
2022-10-31T04:28:52.044Z,10.06
2022-10-31T04:31:21.049Z,10.08
2022-10-31T04:33:53.278Z,10.07
2022-10-31T04:36:22.349Z,10.03
2022-10-31T04:38:51.016Z,10.05
2022-10-31T04:41:40.428Z,10.09
2022-10-31T04:44:15.765Z,10.03
2022-10-31T04:46:44.948Z,9.99
2022-10-31T04:49:15.359Z,9.96
2022-10-31T04:51:44.500Z,10.03
2022-10-31T04:54:13.164Z,10.05
2022-10-31T04:57:00.236Z,10.02
2022-10-31T04:59:29.998Z,10.09
2022-10-31T05:01:58.781Z,10.01
2022-10-31T05:04:42.531Z,9.91
2022-10-31T05:07:11.128Z,9.89
2022-10-31T05:09:40.174Z,9.99
2022-10-31T05:12:09.336Z,9.94
2022-10-31T05:14:56.432Z,9.90
2022-10-31T05:17:44.148Z,9.92
2022-10-31T05:20:33.493Z,9.89
2022-10-31T05:23:16.005Z,9.83
2022-10-31T05:25:44.756Z,9.86
2022-10-31T05:28:14.176Z,9.93
2022-10-31T05:30:42.818Z,9.97
2022-10-31T05:33:17.994Z,9.98
2022-10-31T05:36:11.343Z,9.99
2022-10-31T05:39:06.558Z,9.91
2022-10-31T05:41:43.085Z,9.90
2022-10-31T05:44:17.596Z,9.93
2022-10-31T05:46:56.092Z,9.93
2022-10-31T05:49:43.028Z,9.94
2022-10-31T05:52:28.014Z,9.93
2022-10-31T05:55:04.196Z,9.94
2022-10-31T05:57:35.676Z,9.83
2022-10-31T06:00:06.577Z,9.76
2022-10-31T06:02:50.391Z,9.74
2022-10-31T06:05:31.343Z,9.70
2022-10-31T06:08:02.115Z,9.70
2022-10-31T06:10:32.100Z,9.69
2022-10-31T06:13:01.086Z,9.71
2022-10-31T06:15:54.687Z,9.81
2022-10-31T06:18:26.704Z,9.83
2022-10-31T06:20:56.950Z,9.85
2022-10-31T06:23:27.261Z,9.86
2022-10-31T06:26:15.902Z,9.87
2022-10-31T06:28:44.792Z,9.88
2022-10-31T06:31:28.537Z,9.91
2022-10-31T06:34:01.089Z,9.91
2022-10-31T06:36:29.735Z,9.94
2022-10-31T06:38:59.706Z,9.93
2022-10-31T06:41:28.934Z,9.99
2022-10-31T06:43:58.956Z,10.02
2022-10-31T06:46:54.202Z,10.00
2022-10-31T06:49:58.410Z,9.99
2022-10-31T06:52:29.142Z,10.05
2022-10-31T06:54:59.504Z,10.11
2022-10-31T06:57:30.384Z,10.19
2022-10-31T06:59:59.060Z,10.20
2022-10-31T07:02:57.693Z,10.23
2022-10-31T07:05:27.779Z,10.28
2022-10-31T07:07:57.597Z,10.34
2022-10-31T07:10:32.096Z,10.38
2022-10-31T07:13:07.971Z,10.44
2022-10-31T07:15:42.022Z,10.47
2022-10-31T07:18:13.809Z,10.52
2022-10-31T07:20:42.560Z,10.55
2022-10-31T07:23:12.876Z,10.58
2022-10-31T07:25:44.446Z,10.61
2022-10-31T07:28:19.334Z,10.64
2022-10-31T07:30:53.769Z,10.68
2022-10-31T07:33:24.495Z,10.72
2022-10-31T07:36:11.689Z,10.76
2022-10-31T07:38:48.055Z,10.79
2022-10-31T07:41:19.645Z,10.85
2022-10-31T07:43:50.223Z,10.90
2022-10-31T07:46:19.505Z,10.92
2022-10-31T07:48:51.602Z,10.99
2022-10-31T07:51:41.593Z,11.05
2022-10-31T07:54:37.008Z,11.11
2022-10-31T07:57:07.161Z,11.16
2022-10-31T07:59:35.929Z,11.21
2022-10-31T08:02:05.603Z,11.26
2022-10-31T08:04:34.996Z,11.33
2022-10-31T08:07:22.456Z,11.41
2022-10-31T08:09:59.497Z,11.44
2022-10-31T08:12:34.610Z,11.52
2022-10-31T08:15:03.893Z,11.58
2022-10-31T08:17:37.501Z,11.66
2022-10-31T08:20:07.461Z,11.73
2022-10-31T08:22:44.118Z,11.80
2022-10-31T08:25:13.716Z,11.90
2022-10-31T08:27:44.226Z,11.99
2022-10-31T08:30:20.206Z,12.07
2022-10-31T08:33:08.017Z,12.19
2022-10-31T08:35:55.473Z,12.30
2022-10-31T08:38:42.913Z,12.41
2022-10-31T08:41:14.258Z,12.51
2022-10-31T08:43:45.842Z,12.67
2022-10-31T08:46:15.514Z,12.88
2022-10-31T08:48:46.512Z,13.12
2022-10-31T08:51:15.288Z,13.38
2022-10-31T08:53:44.650Z,13.61
2022-10-31T08:56:39.838Z,13.85
2022-10-31T08:59:25.497Z,14.08
2022-10-31T09:02:23.261Z,14.32
2022-10-31T09:04:55.664Z,14.43
2022-10-31T09:07:24.471Z,14.60
2022-10-31T09:09:53.570Z,14.78
2022-10-31T09:12:22.742Z,14.89
2022-10-31T09:14:58.906Z,14.97
2022-10-31T09:17:51.128Z,15.19
2022-10-31T09:20:31.842Z,15.32
2022-10-31T09:23:03.459Z,15.40
2022-10-31T09:25:37.385Z,15.53
2022-10-31T09:28:26.184Z,15.69
2022-10-31T09:30:58.795Z,15.71
2022-10-31T09:33:47.433Z,15.88
2022-10-31T09:36:47.283Z,16.21
2022-10-31T09:39:22.041Z,16.41
2022-10-31T09:42:33.297Z,16.65
2022-10-31T09:45:14.913Z,16.83
2022-10-31T09:48:04.674Z,16.84
2022-10-31T09:50:48.766Z,16.72
2022-10-31T09:53:46.804Z,16.57
2022-10-31T09:56:23.739Z,16.31
2022-10-31T09:58:59.182Z,16.07
2022-10-31T10:01:45.695Z,15.78
2022-10-31T10:04:38.716Z,15.56
2022-10-31T10:07:27.958Z,15.42
2022-10-31T10:10:19.636Z,15.24
2022-10-31T10:16:25.084Z,15.04
2022-10-31T10:19:20.758Z,14.99
2022-10-31T10:22:00.460Z,14.94
2022-10-31T10:24:56.533Z,14.92
2022-10-31T10:27:43.980Z,14.95
2022-10-31T10:30:19.518Z,14.95
2022-10-31T10:32:55.720Z,14.98
2022-10-31T10:35:32.646Z,14.99
2022-10-31T10:38:18.817Z,14.98
2022-10-31T10:40:49.831Z,14.96
2022-10-31T10:43:34.683Z,14.93
2022-10-31T10:46:38.776Z,14.93
2022-10-31T10:54:09.464Z,14.94
2022-10-31T10:57:05.156Z,14.99
2022-10-31T10:59:34.580Z,14.98
2022-10-31T11:02:03.347Z,14.94
2022-10-31T11:04:36.932Z,14.95
2022-10-31T11:07:10.884Z,14.94
2022-10-31T11:09:40.567Z,14.94
2022-10-31T11:12:25.112Z,14.97
2022-10-31T11:15:02.717Z,14.95
2022-10-31T11:17:36.618Z,14.97
2022-10-31T11:20:24.822Z,14.98
2022-10-31T11:23:18.740Z,14.98
2022-10-31T11:26:00.145Z,14.97
2022-10-31T11:28:31.594Z,14.96
2022-10-31T11:31:07.995Z,14.96
2022-10-31T11:33:41.371Z,15.00
2022-10-31T11:36:23.451Z,14.99
2022-10-31T11:38:55.532Z,14.99
2022-10-31T11:41:30.764Z,14.98
2022-10-31T11:44:03.432Z,14.99
2022-10-31T11:46:37.549Z,15.01
2022-10-31T11:49:08.348Z,15.10
2022-10-31T11:51:37.730Z,15.18
2022-10-31T11:54:20.684Z,15.22
2022-10-31T11:56:50.025Z,15.32
2022-10-31T11:59:26.902Z,15.39
2022-10-31T12:02:02.605Z,15.44
2022-10-31T12:04:43.647Z,15.48
2022-10-31T12:07:12.338Z,15.49
2022-10-31T12:09:43.688Z,15.49
2022-10-31T12:12:44.599Z,15.54
2022-10-31T12:15:34.896Z,15.56
2022-10-31T12:18:41.959Z,15.65
2022-10-31T12:21:33.313Z,15.64
2022-10-31T12:24:18.107Z,15.67
2022-10-31T12:27:00.467Z,15.63
2022-10-31T12:30:12.112Z,15.68
2022-10-31T12:33:13.903Z,15.65
2022-10-31T12:35:54.072Z,15.64
2022-10-31T12:38:54.896Z,15.64
2022-10-31T12:41:46.541Z,15.58
2022-10-31T12:44:55.249Z,15.59
2022-10-31T12:48:06.692Z,15.65
2022-10-31T12:50:54.639Z,15.66
2022-10-31T12:53:53.786Z,15.63
2022-10-31T12:56:43.149Z,15.60
2022-10-31T12:59:21.542Z,15.55
2022-10-31T13:01:58.077Z,15.52
2022-10-31T13:04:45.710Z,15.49
2022-10-31T13:07:22.635Z,15.45
2022-10-31T13:10:04.000Z,15.46
2022-10-31T13:12:37.547Z,15.51
2022-10-31T13:15:21.101Z,15.54
2022-10-31T13:17:55.432Z,15.54
2022-10-31T13:20:32.155Z,15.54
2022-10-31T13:23:44.629Z,15.51
2022-10-31T13:26:15.215Z,15.50
2022-10-31T13:28:52.057Z,15.50
2022-10-31T13:31:23.098Z,15.48
2022-10-31T13:33:58.953Z,15.49
2022-10-31T13:36:37.314Z,15.49
2022-10-31T13:39:24.075Z,15.47
2022-10-31T13:42:03.134Z,15.47
2022-10-31T13:44:38.771Z,15.47
2022-10-31T13:47:29.146Z,15.46
2022-10-31T13:50:22.485Z,15.46
2022-10-31T13:52:51.385Z,15.46
2022-10-31T13:55:44.293Z,15.43
2022-10-31T13:58:28.938Z,15.42
2022-10-31T14:01:17.690Z,15.39
2022-10-31T14:04:13.054Z,15.35
2022-10-31T14:06:55.890Z,15.31
2022-10-31T14:09:36.231Z,15.29
2022-10-31T14:12:09.805Z,15.28
2022-10-31T14:14:51.608Z,15.23
2022-10-31T14:17:28.080Z,15.21
2022-10-31T14:20:36.175Z,15.18
2022-10-31T14:23:41.280Z,15.17
2022-10-31T14:26:38.618Z,15.15
2022-10-31T14:29:29.344Z,15.14
2022-10-31T14:32:14.008Z,15.11
2022-10-31T14:34:52.843Z,15.09
2022-10-31T14:38:03.607Z,15.07
2022-10-31T14:40:50.978Z,15.04
2022-10-31T14:43:43.298Z,15.00
2022-10-31T14:46:25.664Z,14.95
2022-10-31T14:49:30.572Z,14.92
2022-10-31T14:52:00.237Z,14.87
2022-10-31T14:54:36.246Z,14.86
2022-10-31T14:57:09.818Z,14.85
2022-10-31T14:59:44.689Z,14.83
2022-10-31T15:02:23.295Z,14.79
2022-10-31T15:04:56.644Z,14.74
2022-10-31T15:07:28.002Z,14.65
2022-10-31T15:10:03.446Z,14.63
2022-10-31T15:12:35.032Z,14.58
2022-10-31T15:15:16.284Z,14.56
2022-10-31T15:18:00.683Z,14.54
2022-10-31T15:20:32.816Z,14.47
2022-10-31T15:23:02.841Z,14.46
2022-10-31T15:25:36.858Z,14.43
2022-10-31T15:28:17.749Z,14.37
2022-10-31T15:30:54.191Z,14.32
2022-10-31T15:33:26.607Z,14.24
2022-10-31T15:36:00.579Z,14.16
2022-10-31T15:38:31.201Z,14.14
2022-10-31T15:41:05.690Z,14.12
2022-10-31T15:43:41.071Z,14.09
2022-10-31T15:46:11.844Z,14.00
2022-10-31T15:48:41.659Z,13.92
2022-10-31T15:51:10.233Z,13.88
2022-10-31T15:53:46.107Z,13.80
2022-10-31T15:56:25.006Z,13.73
2022-10-31T15:58:56.351Z,13.68
2022-10-31T16:01:28.455Z,13.61
2022-10-31T16:04:07.597Z,13.55
2022-10-31T16:06:37.270Z,13.58
2022-10-31T16:09:23.207Z,13.53
2022-10-31T16:11:53.988Z,13.47
2022-10-31T16:14:28.701Z,13.44
2022-10-31T16:17:00.594Z,13.37
2022-10-31T16:19:34.640Z,13.36
2022-10-31T16:22:10.968Z,13.32
2022-10-31T16:24:50.619Z,13.28
2022-10-31T16:27:27.963Z,13.28
2022-10-31T16:29:58.478Z,13.25
2022-10-31T16:32:35.749Z,13.24
2022-10-31T16:35:27.440Z,13.23
2022-10-31T16:37:57.818Z,13.19
2022-10-31T16:40:27.564Z,13.17
2022-10-31T16:43:01.641Z,13.13
2022-10-31T16:45:33.948Z,13.07
2022-10-31T16:48:08.052Z,13.00
2022-10-31T16:50:36.741Z,12.94
2022-10-31T16:53:14.154Z,12.92
2022-10-31T16:55:47.816Z,12.93
2022-10-31T16:58:26.977Z,12.94
2022-10-31T17:00:56.377Z,12.95
2022-10-31T17:03:25.585Z,12.90
2022-10-31T17:05:56.209Z,12.80
2022-10-31T17:08:25.996Z,12.77
2022-10-31T17:10:57.660Z,12.70
2022-10-31T17:13:32.164Z,12.71
2022-10-31T17:16:03.934Z,12.71
2022-10-31T17:18:32.692Z,12.70
2022-10-31T17:21:06.264Z,12.68
2022-10-31T17:23:39.685Z,12.65
2022-10-31T17:26:10.425Z,12.66
2022-10-31T17:28:40.415Z,12.63
2022-10-31T17:31:20.160Z,12.61
2022-10-31T17:33:48.959Z,12.58
2022-10-31T17:36:17.780Z,12.50
2022-10-31T17:38:46.373Z,12.46
2022-10-31T17:41:15.155Z,12.43
2022-10-31T17:43:45.327Z,12.44
2022-10-31T17:46:14.134Z,12.52
2022-10-31T17:48:42.951Z,12.55
2022-10-31T17:51:12.459Z,12.55
2022-10-31T17:53:41.056Z,12.51
2022-10-31T17:56:11.405Z,12.52
2022-10-31T17:58:40.510Z,12.51
2022-10-31T18:01:17.308Z,12.48
2022-10-31T18:03:48.057Z,12.48
2022-10-31T18:06:18.262Z,12.43
2022-10-31T18:08:48.136Z,12.39
2022-10-31T18:11:21.789Z,12.40
2022-10-31T18:13:57.852Z,12.39
2022-10-31T18:16:33.385Z,12.36
2022-10-31T18:19:06.121Z,12.36
2022-10-31T18:21:35.545Z,12.33
2022-10-31T18:24:04.823Z,12.35
2022-10-31T18:26:34.565Z,12.41
2022-10-31T18:29:03.761Z,12.46
2022-10-31T18:31:33.808Z,12.47
2022-10-31T18:34:02.547Z,12.46
2022-10-31T18:36:31.305Z,12.37
2022-10-31T18:39:00.043Z,12.29
2022-10-31T18:41:30.053Z,12.22
2022-10-31T18:49:05.220Z,12.16
2022-10-31T18:51:33.135Z,12.12
2022-10-31T18:54:01.817Z,12.16
2022-10-31T18:56:31.261Z,12.16
2022-10-31T18:59:01.447Z,12.13
2022-10-31T19:01:31.083Z,12.04
2022-10-31T19:04:01.233Z,12.02
2022-10-31T19:06:31.607Z,11.90
2022-10-31T19:09:02.951Z,11.95
2022-10-31T19:11:35.008Z,11.94
2022-10-31T19:14:04.642Z,11.96
2022-10-31T19:16:35.700Z,11.85
2022-10-31T19:19:10.944Z,11.84
2022-10-31T19:21:57.278Z,11.90
2022-10-31T19:24:54.174Z,11.94
2022-10-31T19:27:24.937Z,11.87
2022-10-31T19:29:55.766Z,11.76
2022-10-31T19:32:25.091Z,11.74
2022-10-31T19:34:58.461Z,11.71
2022-10-31T19:37:47.988Z,11.70
2022-10-31T19:40:17.345Z,11.66
2022-10-31T19:42:46.516Z,11.69
2022-10-31T19:45:15.843Z,11.74
2022-10-31T19:48:00.474Z,11.65
2022-10-31T19:50:30.362Z,11.57
2022-10-31T19:53:01.857Z,11.55
2022-10-31T19:55:30.692Z,11.51
2022-10-31T19:58:02.186Z,11.51
2022-10-31T20:00:31.301Z,11.54
2022-10-31T20:03:03.845Z,11.63
2022-10-31T20:05:34.163Z,11.65
2022-10-31T20:08:04.902Z,11.67
2022-10-31T20:10:34.077Z,11.59
2022-10-31T20:13:03.651Z,11.55
2022-10-31T20:15:32.741Z,11.52
2022-10-31T20:18:01.733Z,11.57
2022-10-31T20:20:30.723Z,11.65
2022-10-31T20:23:00.969Z,11.67
2022-10-31T20:25:32.401Z,11.69
2022-10-31T20:28:01.225Z,11.67
2022-10-31T20:30:30.640Z,11.62
2022-10-31T20:32:59.317Z,11.59
2022-10-31T20:35:27.989Z,11.61
2022-10-31T20:37:57.311Z,11.51
2022-10-31T20:43:09.508Z,11.66
2022-10-31T20:45:38.255Z,11.67
2022-10-31T20:48:07.602Z,11.69
2022-10-31T20:50:39.507Z,11.71
2022-10-31T20:53:08.828Z,11.70
2022-10-31T20:55:38.030Z,11.66
2022-10-31T20:58:08.536Z,11.56
2022-10-31T21:00:38.663Z,11.48
2022-10-31T21:03:07.619Z,11.49
2022-10-31T21:05:36.707Z,11.47
2022-10-31T21:08:05.906Z,11.45
2022-10-31T21:10:35.596Z,11.53
2022-10-31T21:13:05.934Z,11.51
2022-10-31T21:15:38.856Z,11.44
2022-10-31T21:18:09.044Z,11.41
2022-10-31T21:20:43.716Z,11.42
2022-10-31T21:23:12.774Z,11.45
2022-10-31T21:25:43.247Z,11.36
2022-10-31T21:28:17.509Z,11.33
2022-10-31T21:30:51.973Z,11.29
2022-10-31T21:33:20.677Z,11.29
2022-10-31T21:35:53.146Z,11.34
2022-10-31T21:38:21.806Z,11.22
2022-10-31T21:40:50.430Z,11.21
2022-10-31T21:43:19.078Z,11.17
2022-10-31T21:45:49.112Z,11.17
2022-10-31T21:48:17.920Z,11.23
2022-10-31T21:50:46.560Z,11.27
2022-10-31T21:53:35.965Z,11.27
2022-10-31T21:56:05.239Z,11.27
2022-10-31T21:58:36.265Z,11.26
2022-10-31T22:01:08.761Z,11.24
2022-10-31T22:03:38.224Z,11.25
2022-10-31T22:06:08.824Z,11.17
2022-10-31T22:08:37.666Z,11.08
2022-10-31T22:11:10.486Z,10.99
2022-10-31T22:13:39.354Z,10.94
2022-10-31T22:16:12.619Z,10.93
2022-10-31T22:18:42.754Z,10.91
2022-10-31T22:21:14.254Z,10.99
2022-10-31T22:23:43.954Z,11.01
2022-10-31T22:26:16.258Z,11.04
2022-10-31T22:28:47.328Z,10.91
2022-10-31T22:31:19.984Z,10.80
2022-10-31T22:33:49.522Z,10.72
2022-10-31T22:36:21.337Z,10.68
2022-10-31T22:38:50.315Z,10.62
2022-10-31T22:41:21.645Z,10.63
2022-10-31T22:43:50.941Z,10.65
2022-10-31T22:46:24.135Z,10.75
2022-10-31T22:48:55.472Z,10.76
2022-10-31T22:51:26.801Z,10.76
2022-10-31T22:53:56.755Z,10.60
2022-10-31T22:56:29.427Z,10.68
2022-10-31T22:58:59.444Z,10.62
2022-10-31T23:01:32.688Z,10.58
2022-10-31T23:04:02.057Z,10.55
2022-10-31T23:06:33.009Z,10.57
2022-10-31T23:09:03.545Z,10.50
2022-10-31T23:11:35.289Z,10.47
2022-10-31T23:14:09.073Z,10.43
2022-10-31T23:16:44.233Z,10.40
2022-10-31T23:19:17.193Z,10.51
2022-10-31T23:22:00.012Z,10.51
2022-10-31T23:24:34.291Z,10.42
2022-10-31T23:27:10.948Z,10.38
2022-10-31T23:29:44.448Z,10.26
2022-10-31T23:32:21.824Z,10.28
2022-10-31T23:34:53.752Z,10.17
2022-10-31T23:37:25.462Z,10.20
2022-10-31T23:39:54.114Z,10.23
2022-10-31T23:42:23.536Z,10.19
2022-10-31T23:44:52.254Z,10.15
2022-10-31T23:47:23.818Z,10.07
2022-10-31T23:49:52.553Z,10.07
2022-10-31T23:52:21.208Z,10.04
2022-10-31T23:54:49.826Z,9.98
2022-10-31T23:57:18.936Z,10.05
2022-10-31T23:59:47.990Z,10.03
